Terminal Aerodrome Forecast
Issued by NWS Twin Cities, MN

Home | Current Version | Previous Version | Text Only | Print | Product List | Glossary On
Versions: 1 2 3 4 5 6 7 8 9 10 11 12 13 14 15 16 17 18
000
FTUS43 KMPX 010500 RRA
TAFSTC
TAF
KSTC 010540Z 0106/0206 13013KT P6SM BKN080
     FM011000 14010KT 4SM BR OVC008
     FM011700 16009KT P6SM OVC015
     FM012200 17006KT P6SM OVC030
     FM020300 22004KT 6SM BR SCT015 BKN100=

USA.gov is the U.S. government's official web portal to all federal, state and local government web resources and services.